Time;durP1;ratioP1;P1;durP2;ratioP2;P2;SDS_P1;SDS_P2;PMS_P1;PMS_P2;Temp;Humidity;BMP_temperature;BMP_pressure;BME280_temperature;BME280_humidity;BME280_pressure;Samples;Min_cycle;Max_cycle;Signal;HPM_P1;HPM_P2
2021/12/20 00:01:21;;;;;;;862.37;779.20;;;6.50;99.90;;;;;;5061845;28;20523;-82
2021/12/20 00:03:48;;;;;;;838.73;757.57;;;6.50;99.90;;;;;;5061472;28;20472;-82
2021/12/20 00:06:15;;;;;;;838.10;757.87;;;6.50;99.90;;;;;;5061463;28;20457;-82
2021/12/20 00:08:42;;;;;;;846.83;765.73;;;6.50;99.90;;;;;;5061745;28;20448;-82
2021/12/20 00:11:09;;;;;;;862.30;780.33;;;6.40;99.90;;;;;;5062401;28;20455;-83
2021/12/20 00:13:39;;;;;;;903.93;821.53;;;6.40;99.90;;;;;;5061821;28;20448;-83
2021/12/20 00:16:07;;;;;;;890.77;809.63;;;6.40;99.90;;;;;;5062035;28;20457;-83
2021/12/20 00:18:34;;;;;;;904.83;822.10;;;6.40;99.90;;;;;;5061768;28;20478;-83
2021/12/20 00:21:06;;;;;;;920.97;836.90;;;6.40;99.90;;;;;;5062038;28;20467;-83
2021/12/20 00:23:34;;;;;;;919.47;835.10;;;6.30;99.90;;;;;;5061972;28;20525;-83
2021/12/20 00:26:01;;;;;;;934.67;850.60;;;6.30;99.90;;;;;;5062556;28;20451;-83
2021/12/20 00:28:28;;;;;;;930.30;846.10;;;6.30;99.90;;;;;;5061718;28;20451;-83
2021/12/20 00:30:58;;;;;;;929.00;845.70;;;6.30;99.90;;;;;;5061507;28;20578;-83
2021/12/20 00:33:28;;;;;;;941.90;857.50;;;6.30;99.90;;;;;;5062171;28;20827;-83
2021/12/20 00:35:55;;;;;;;928.37;845.10;;;6.20;99.90;;;;;;5062724;28;20578;-83
2021/12/20 00:41:06;;;;;;;936.67;851.17;;;6.30;99.90;;;;;;5061784;28;20420;-83
2021/12/20 00:43:35;;;;;;;945.27;858.77;;;6.20;99.90;;;;;;5061357;28;21038;-83
2021/12/20 00:46:05;;;;;;;929.20;844.83;;;6.30;99.90;;;;;;5061861;28;20975;-83
2021/12/20 00:48:35;;;;;;;938.27;853.20;;;6.10;99.90;;;;;;5061294;28;20448;-84
2021/12/20 00:51:06;;;;;;;936.40;851.17;;;6.20;99.90;;;;;;5061421;28;20470;-83
2021/12/20 00:53:33;;;;;;;934.73;848.77;;;6.10;99.90;;;;;;5061370;28;20451;-83
2021/12/20 00:56:00;;;;;;;943.60;856.23;;;6.20;99.90;;;;;;5061033;28;20455;-83
2021/12/20 00:58:28;;;;;;;953.70;865.10;;;6.10;99.90;;;;;;5061248;28;20460;-83
2021/12/20 01:00:58;;;;;;;943.83;855.97;;;6.20;99.90;;;;;;5061457;28;20479;-83
2021/12/20 01:03:29;;;;;;;953.63;865.10;;;6.20;99.90;;;;;;5061801;28;20471;-83
2021/12/20 01:05:56;;;;;;;962.33;872.63;;;6.10;99.90;;;;;;5061423;28;20462;-84
2021/12/20 01:08:24;;;;;;;965.80;875.83;;;6.20;99.90;;;;;;5061454;28;20523;-83
2021/12/20 01:10:54;;;;;;;956.80;867.90;;;6.20;99.90;;;;;;5061480;28;21002;-83
2021/12/20 01:13:23;;;;;;;945.47;856.90;;;6.20;99.90;;;;;;5062453;28;20469;-83
2021/12/20 01:15:53;;;;;;;951.50;862.70;;;6.10;99.90;;;;;;5064538;28;20462;-83
2021/12/20 01:18:22;;;;;;;940.57;852.00;;;6.20;99.90;;;;;;5065679;28;20478;-83
2021/12/20 01:20:51;;;;;;;942.93;854.23;;;6.20;99.90;;;;;;5065279;28;20475;-83
2021/12/20 01:23:19;;;;;;;946.10;858.10;;;6.10;99.90;;;;;;5065470;28;20550;-84
2021/12/20 01:25:46;;;;;;;947.70;860.07;;;6.10;99.90;;;;;;5065444;28;20523;-83
2021/12/20 01:28:13;;;;;;;931.57;845.27;;;6.20;99.90;;;;;;5064803;28;20988;-83
2021/12/20 01:30:42;;;;;;;923.40;837.97;;;6.20;99.90;;;;;;5064384;28;21041;-84
2021/12/20 01:33:11;;;;;;;949.80;862.33;;;6.10;99.90;;;;;;5064777;28;20447;-83
2021/12/20 01:35:40;;;;;;;966.73;878.57;;;6.10;99.90;;;;;;5063849;28;20455;-83
2021/12/20 01:38:11;;;;;;;960.57;873.20;;;6.10;99.90;;;;;;5064597;28;20444;-83
2021/12/20 01:40:38;;;;;;;947.73;860.03;;;6.00;99.90;;;;;;5065202;28;20475;-84
2021/12/20 01:43:08;;;;;;;938.20;851.43;;;6.10;99.90;;;;;;5064869;28;20558;-84
2021/12/20 01:45:36;;;;;;;936.23;849.80;;;6.00;99.90;;;;;;5065060;28;20452;-84
2021/12/20 01:48:04;;;;;;;902.60;819.20;;;6.00;99.90;;;;;;5064652;28;20471;-83
2021/12/20 01:51:14;;;;;;;919.87;835.60;;;6.00;99.90;;;;;;5064453;28;20479;-83
2021/12/20 01:53:41;;;;;;;916.73;832.17;;;6.00;99.90;;;;;;5063516;28;20443;-83
2021/12/20 01:56:09;;;;;;;918.27;833.33;;;6.00;99.90;;;;;;5065922;28;20489;-83
2021/12/20 01:58:41;;;;;;;934.03;849.60;;;6.00;99.90;;;;;;5064811;28;20448;-83
2021/12/20 02:01:24;;;;;;;913.10;830.33;;;5.90;99.90;;;;;;5065228;28;20997;-83
2021/12/20 02:03:57;;;;;;;886.47;804.97;;;6.00;99.90;;;;;;5065100;28;20466;-83
2021/12/20 02:06:30;;;;;;;920.50;837.50;;;6.00;99.90;;;;;;5064393;28;20458;-83
2021/12/20 02:08:59;;;;;;;896.67;815.70;;;6.10;99.90;;;;;;5063642;28;20468;-83
2021/12/20 02:11:26;;;;;;;899.93;818.60;;;5.90;99.90;;;;;;5064691;28;20483;-83
2021/12/20 02:13:53;;;;;;;891.23;810.13;;;6.00;99.90;;;;;;5064768;28;20509;-84
2021/12/20 02:16:21;;;;;;;895.43;814.97;;;5.90;99.90;;;;;;5064265;28;20455;-84
2021/12/20 02:18:49;;;;;;;874.90;795.30;;;6.00;99.90;;;;;;5064221;28;20458;-83
2021/12/20 02:21:18;;;;;;;865.97;786.73;;;6.00;99.90;;;;;;5065262;28;20545;-83
2021/12/20 02:23:47;;;;;;;872.87;794.67;;;5.90;99.90;;;;;;5063870;28;20499;-84
2021/12/20 02:26:17;;;;;;;857.80;779.50;;;5.90;99.90;;;;;;5063999;28;20483;-84
2021/12/20 02:28:48;;;;;;;843.50;768.20;;;6.00;99.90;;;;;;5064059;28;20523;-83
2021/12/20 02:37:02;;;;;;;835.67;762.30;;;6.10;99.90;;;;;;5063660;28;20438;-83
2021/12/20 02:39:29;;;;;;;830.00;756.90;;;6.10;99.90;;;;;;5063886;28;20471;-84
2021/12/20 02:41:58;;;;;;;834.50;761.70;;;6.00;99.90;;;;;;5064033;28;20530;-83
2021/12/20 02:44:27;;;;;;;826.63;755.43;;;6.00;99.90;;;;;;5063587;28;20498;-83
2021/12/20 02:47:06;;;;;;;825.30;755.37;;;6.10;99.90;;;;;;5063238;28;20861;-83
2021/12/20 02:49:34;;;;;;;818.20;747.50;;;6.10;99.90;;;;;;5063286;28;20478;-84
2021/12/20 02:52:05;;;;;;;816.03;745.67;;;6.10;99.90;;;;;;5064019;28;20451;-83
2021/12/20 02:54:33;;;;;;;815.90;745.80;;;6.00;99.90;;;;;;5064144;28;20894;-83
2021/12/20 02:57:00;;;;;;;811.43;741.53;;;6.10;99.90;;;;;;5063991;28;20475;-83
2021/12/20 02:59:27;;;;;;;822.17;751.63;;;6.00;99.90;;;;;;5062680;28;20490;-83
2021/12/20 03:01:57;;;;;;;823.37;753.50;;;6.00;99.90;;;;;;5063209;28;20515;-83
2021/12/20 03:04:24;;;;;;;836.13;766.00;;;6.00;99.90;;;;;;5063016;28;20485;-83
2021/12/20 03:06:53;;;;;;;816.03;746.07;;;6.00;99.90;;;;;;5063984;28;20451;-83
2021/12/20 03:09:27;;;;;;;814.33;744.40;;;6.00;99.90;;;;;;5063785;28;20474;-83
2021/12/20 03:11:58;;;;;;;832.93;761.63;;;6.00;99.90;;;;;;5063853;28;20550;-83
2021/12/20 03:14:30;;;;;;;835.00;762.93;;;5.90;99.90;;;;;;5063733;28;20442;-84
2021/12/20 03:16:58;;;;;;;844.03;771.07;;;6.00;99.90;;;;;;5063610;28;20463;-84
2021/12/20 03:19:25;;;;;;;861.43;788.83;;;5.90;99.90;;;;;;5062913;28;20475;-83
2021/12/20 03:21:53;;;;;;;826.47;755.37;;;5.90;99.90;;;;;;5063792;28;20459;-84
2021/12/20 03:24:24;;;;;;;809.23;738.63;;;6.00;99.90;;;;;;5063955;28;21155;-84
2021/12/20 03:26:52;;;;;;;810.50;740.00;;;5.90;99.90;;;;;;5063382;28;20531;-84
2021/12/20 03:29:19;;;;;;;829.80;757.40;;;5.90;99.90;;;;;;5063227;28;20533;-84
2021/12/20 03:31:46;;;;;;;812.40;740.50;;;5.90;99.90;;;;;;5063022;28;20451;-83
2021/12/20 03:34:14;;;;;;;809.17;738.07;;;5.80;99.90;;;;;;5062574;28;20459;-84
2021/12/20 03:36:41;;;;;;;821.03;749.00;;;5.80;99.90;;;;;;5062078;28;20542;-84
2021/12/20 03:39:11;;;;;;;828.40;756.77;;;5.90;99.90;;;;;;5062306;28;20562;-84
2021/12/20 03:41:41;;;;;;;816.87;745.77;;;5.90;99.90;;;;;;5063530;28;20469;-84
2021/12/20 03:44:08;;;;;;;851.27;779.87;;;5.90;99.90;;;;;;5061823;28;20471;-84
2021/12/20 03:46:42;;;;;;;841.73;770.00;;;5.80;99.90;;;;;;5062124;28;20459;-83
2021/12/20 03:49:09;;;;;;;833.90;760.80;;;5.80;99.90;;;;;;5062144;28;20475;-84
2021/12/20 03:51:37;;;;;;;848.80;774.70;;;5.80;99.90;;;;;;5062327;28;20448;-83
2021/12/20 03:54:04;;;;;;;842.63;769.30;;;5.80;99.90;;;;;;5062000;28;20448;-84
2021/12/20 03:56:31;;;;;;;823.30;749.10;;;5.80;99.90;;;;;;5061082;28;20483;-83
2021/12/20 03:59:02;;;;;;;799.53;727.47;;;5.90;99.90;;;;;;5060941;28;20542;-83
2021/12/20 04:01:29;;;;;;;804.03;732.60;;;5.80;99.90;;;;;;5057958;28;20903;-83
2021/12/20 04:03:57;;;;;;;804.47;733.80;;;5.80;99.90;;;;;;5061888;28;20479;-83
2021/12/20 04:06:28;;;;;;;806.60;734.23;;;5.90;99.90;;;;;;5062822;28;20455;-84
2021/12/20 04:08:56;;;;;;;822.20;749.70;;;5.80;99.90;;;;;;5063975;28;20502;-83
2021/12/20 04:11:28;;;;;;;835.60;762.70;;;5.80;99.90;;;;;;5062546;28;20829;-83
2021/12/20 04:14:01;;;;;;;834.27;761.80;;;5.80;99.90;;;;;;5062355;28;20509;-84
2021/12/20 04:16:29;;;;;;;826.70;753.73;;;5.80;99.90;;;;;;5061532;28;20479;-84
2021/12/20 04:19:01;;;;;;;813.20;741.20;;;5.80;99.90;;;;;;5062716;28;20825;-84
2021/12/20 04:21:30;;;;;;;808.77;736.67;;;5.80;99.90;;;;;;5062179;28;20435;-84
2021/12/20 04:24:01;;;;;;;810.67;739.40;;;5.80;99.90;;;;;;5062051;28;20479;-83
2021/12/20 04:26:28;;;;;;;802.23;731.80;;;5.80;99.90;;;;;;5061841;28;20479;-83
2021/12/20 04:28:55;;;;;;;801.20;731.10;;;5.70;99.90;;;;;;5060897;28;20523;-83
2021/12/20 04:31:27;;;;;;;783.73;714.90;;;5.70;99.90;;;;;;5062259;28;20451;-83
2021/12/20 04:33:55;;;;;;;780.83;713.57;;;5.80;99.90;;;;;;5055579;28;20450;-83
2021/12/20 04:36:28;;;;;;;787.83;720.93;;;5.70;99.90;;;;;;5060546;28;20959;-84
2021/12/20 04:38:57;;;;;;;772.80;706.30;;;5.70;99.90;;;;;;5051710;28;20448;-83
2021/12/20 04:41:40;;;;;;;760.23;694.00;;;5.70;99.90;;;;;;5062055;28;20460;-83
2021/12/20 04:44:07;;;;;;;759.17;695.97;;;5.80;99.90;;;;;;5061999;28;20471;-85
2021/12/20 04:46:35;;;;;;;738.57;680.57;;;5.70;99.90;;;;;;5062690;28;20479;-84
2021/12/20 04:49:02;;;;;;;742.87;683.87;;;5.70;99.90;;;;;;5062981;28;20501;-83
2021/12/20 04:51:31;;;;;;;745.80;688.00;;;5.70;99.90;;;;;;5063259;28;20452;-83
2021/12/20 04:53:58;;;;;;;739.63;680.70;;;5.70;99.90;;;;;;5057249;28;20555;-82
2021/12/20 04:56:26;;;;;;;737.07;678.87;;;5.80;99.90;;;;;;5042615;28;21030;-83
2021/12/20 04:58:57;;;;;;;731.07;674.20;;;5.70;99.90;;;;;;5044439;28;20551;-83
2021/12/20 05:01:24;;;;;;;735.20;677.47;;;5.70;99.90;;;;;;5062802;28;20478;-83
2021/12/20 05:03:57;;;;;;;722.57;665.10;;;5.70;99.90;;;;;;5061712;28;20571;-84
2021/12/20 05:06:33;;;;;;;720.70;663.03;;;5.80;99.90;;;;;;5061762;28;20459;-84
2021/12/20 05:09:02;;;;;;;723.03;664.07;;;5.60;99.90;;;;;;5060937;28;20470;-83
2021/12/20 05:11:31;;;;;;;729.87;671.47;;;5.60;99.90;;;;;;5060984;28;20523;-84
2021/12/20 05:14:01;;;;;;;735.00;676.70;;;5.60;99.90;;;;;;5053362;28;20445;-84
2021/12/20 05:16:30;;;;;;;742.13;681.83;;;5.70;99.90;;;;;;5037058;28;20454;-84
2021/12/20 05:18:59;;;;;;;719.30;660.77;;;5.60;99.90;;;;;;5037266;28;20456;-84
2021/12/20 05:21:26;;;;;;;718.70;660.70;;;5.70;99.90;;;;;;5038345;28;20452;-84
2021/12/20 05:23:53;;;;;;;718.53;663.60;;;5.60;99.90;;;;;;5036941;28;20495;-84
2021/12/20 05:26:20;;;;;;;714.70;659.80;;;5.50;99.90;;;;;;5042221;28;20471;-84
2021/12/20 05:28:47;;;;;;;717.40;662.07;;;5.60;99.90;;;;;;5056434;28;20456;-84
2021/12/20 05:31:14;;;;;;;726.83;672.07;;;5.50;99.90;;;;;;5055649;28;20447;-84
2021/12/20 05:33:42;;;;;;;720.33;666.43;;;5.60;99.90;;;;;;5055235;28;20455;-84
2021/12/20 05:36:10;;;;;;;721.27;668.23;;;5.50;99.90;;;;;;5045038;28;20448;-83
2021/12/20 05:38:37;;;;;;;726.47;673.80;;;5.50;99.90;;;;;;5050776;28;20897;-84
2021/12/20 05:41:04;;;;;;;727.53;674.13;;;5.50;99.90;;;;;;5036228;28;20444;-84
2021/12/20 05:43:34;;;;;;;732.17;678.07;;;5.50;99.90;;;;;;5047454;28;20450;-83
2021/12/20 05:46:12;;;;;;;719.83;665.03;;;5.50;99.90;;;;;;5063412;28;20519;-81
2021/12/20 05:48:39;;;;;;;710.20;655.33;;;5.40;99.90;;;;;;5057850;28;20447;-84
2021/12/20 05:51:06;;;;;;;699.90;645.20;;;5.40;99.90;;;;;;5056044;28;20462;-83
2021/12/20 05:53:38;;;;;;;711.57;655.83;;;5.30;99.90;;;;;;5055045;28;20546;-83
2021/12/20 05:56:08;;;;;;;711.00;653.97;;;5.40;99.90;;;;;;5054696;28;20451;-84
2021/12/20 05:58:35;;;;;;;720.80;662.77;;;5.30;99.90;;;;;;5056480;28;20803;-84
2021/12/20 06:01:02;;;;;;;720.77;662.63;;;5.30;99.90;;;;;;5058427;28;20531;-84
2021/12/20 06:03:28;;;;;;;725.10;667.50;;;5.40;99.90;;;;;;5069126;28;20447;-81
2021/12/20 06:05:58;;;;;;;735.25;675.75;;;5.30;99.90;;;;;;5070811;28;20539;-83
2021/12/20 06:08:42;;;;;;;713.33;658.53;;;5.30;99.90;;;;;;5070411;28;20197;-83
2021/12/20 06:11:41;;;;;;;704.20;653.60;;;5.40;99.90;;;;;;5063842;28;20526;-83
2021/12/20 06:17:29;;;;;;;667.00;623.13;;;5.40;99.90;;;;;;5118896;27;20552;-82
2021/12/20 06:20:14;;;;;;;685.37;639.77;;;5.50;99.90;;;;;;5119349;28;20468;-81
2021/12/20 06:23:17;;;;;;;676.57;633.17;;;5.50;99.90;;;;;;5117549;28;20456;-82
2021/12/20 06:25:57;;;;;;;689.10;643.20;;;5.40;99.90;;;;;;5119984;28;20544;-82
2021/12/20 06:28:31;;;;;;;684.97;641.33;;;5.50;99.90;;;;;;5120572;28;20472;-82
2021/12/20 06:31:07;;;;;;;687.57;642.67;;;5.50;99.90;;;;;;5127417;28;20468;-81
2021/12/20 06:33:58;;;;;;;682.97;638.63;;;5.40;99.90;;;;;;5125319;28;20477;-84
2021/12/20 06:36:29;;;;;;;682.77;637.80;;;5.40;99.90;;;;;;5102835;28;20499;-82
2021/12/20 06:39:03;;;;;;;679.83;636.90;;;5.50;99.90;;;;;;5115222;28;20536;-81
2021/12/20 06:41:40;;;;;;;;;;;;;;;;;;;;;
2021/12/20 06:44:10;;;;;;;651.30;614.03;;;5.40;99.90;;;;;;5125865;28;20445;-81
2021/12/20 06:46:55;;;;;;;674.30;632.90;;;5.40;99.90;;;;;;5126633;28;20507;-82
2021/12/20 06:49:25;;;;;;;683.93;640.00;;;5.40;99.90;;;;;;5106290;28;20453;-82
2021/12/20 06:51:55;;;;;;;683.90;639.80;;;5.40;99.90;;;;;;5106482;28;20652;-82
2021/12/20 06:54:22;;;;;;;680.77;638.80;;;5.40;99.90;;;;;;5116428;28;20449;-82
2021/12/20 06:56:56;;;;;;;679.30;636.80;;;5.50;99.90;;;;;;5125672;28;20464;-81
2021/12/20 06:59:23;;;;;;;684.93;641.73;;;5.40;99.90;;;;;;5124959;28;20472;-82
2021/12/20 07:01:53;;;;;;;689.97;645.73;;;5.30;99.90;;;;;;5126502;28;20513;-82
2021/12/20 07:04:25;;;;;;;668.07;626.30;;;5.50;99.90;;;;;;5126000;28;20449;-82
2021/12/20 07:06:52;;;;;;;676.73;634.20;;;5.40;99.90;;;;;;5125698;28;20440;-81
2021/12/20 07:09:29;;;;;;;681.83;638.93;;;5.40;99.90;;;;;;5125432;28;20453;-82
2021/12/20 07:11:59;;;;;;;691.47;642.90;;;5.40;99.90;;;;;;5125697;28;20449;-81
2021/12/20 07:14:27;;;;;;;695.93;647.83;;;5.30;99.90;;;;;;5126056;28;20770;-82
2021/12/20 07:16:54;;;;;;;706.20;655.87;;;5.40;99.90;;;;;;5107759;28;20504;-82
2021/12/20 07:19:21;;;;;;;710.90;659.13;;;5.30;99.90;;;;;;5126349;28;20492;-82
2021/12/20 07:21:56;;;;;;;704.00;653.57;;;5.30;99.90;;;;;;5125380;28;20532;-82
2021/12/20 07:24:43;;;;;;;701.40;649.83;;;5.30;99.90;;;;;;5125389;28;20470;-83
2021/12/20 07:27:31;;;;;;;699.90;649.43;;;5.30;99.90;;;;;;5099476;28;20994;-83
2021/12/20 07:33:05;;;;;;;718.33;666.30;;;5.20;99.90;;;;;;5104736;28;20446;-82
2021/12/20 07:35:35;;;;;;;716.00;662.70;;;5.20;99.90;;;;;;5111446;28;20468;-82
2021/12/20 07:38:24;;;;;;;714.37;660.27;;;5.10;99.90;;;;;;5111824;28;20515;-83
2021/12/20 07:41:44;;;;;;;;;;;;;;;;;;;;;
2021/12/20 07:44:11;;;;;;;704.53;651.10;;;5.10;99.90;;;;;;5109434;28;20467;-80
2021/12/20 07:46:44;;;;;;;708.83;654.27;;;5.00;99.90;;;;;;5105148;28;20457;-80
2021/12/20 07:49:13;;;;;;;707.33;651.80;;;5.00;99.90;;;;;;5100977;28;20545;-78
2021/12/20 07:51:44;;;;;;;704.37;648.10;;;5.00;99.90;;;;;;5101797;28;20476;-80
2021/12/20 07:54:13;;;;;;;706.70;649.20;;;5.00;99.90;;;;;;5111975;28;20456;-80
2021/12/20 07:56:47;;;;;;;706.57;649.10;;;4.90;99.90;;;;;;5113526;28;20497;-81
2021/12/20 07:59:14;;;;;;;717.50;658.70;;;4.80;99.90;;;;;;5111186;28;20472;-81
2021/12/20 08:01:41;;;;;;;708.40;650.10;;;4.70;99.90;;;;;;5108011;28;20453;-80
2021/12/20 08:04:08;;;;;;;707.00;648.60;;;4.80;99.90;;;;;;5092618;28;20453;-79
2021/12/20 08:06:35;;;;;;;706.80;646.67;;;4.50;99.90;;;;;;5108373;28;20495;-80
2021/12/20 08:09:02;;;;;;;703.33;642.50;;;4.50;99.90;;;;;;5106370;28;20466;-81
2021/12/20 08:11:31;;;;;;;716.27;653.93;;;4.50;99.90;;;;;;5108352;28;20452;-81
2021/12/20 08:13:57;;;;;;;723.70;662.97;;;4.40;99.90;;;;;;5108653;28;20449;-80
2021/12/20 08:16:24;;;;;;;726.47;664.00;;;4.20;99.90;;;;;;5108290;28;20469;-81
2021/12/20 08:18:51;;;;;;;707.43;642.63;;;4.20;99.90;;;;;;5107365;28;20531;-81
2021/12/20 08:21:17;;;;;;;718.50;651.80;;;4.10;99.90;;;;;;5106729;28;20449;-81
2021/12/20 08:23:44;;;;;;;698.83;637.73;;;4.10;99.90;;;;;;5109007;28;20196;-81
2021/12/20 08:26:11;;;;;;;699.90;641.97;;;4.30;99.90;;;;;;5109231;28;20452;-81
2021/12/20 08:28:40;;;;;;;700.73;644.23;;;4.30;99.90;;;;;;5109843;28;20454;-80
2021/12/20 08:31:08;;;;;;;691.50;636.67;;;4.20;99.90;;;;;;5109100;28;20456;-81
2021/12/20 08:33:36;;;;;;;691.83;638.90;;;4.20;99.90;;;;;;5108694;28;20450;-81
2021/12/20 08:36:04;;;;;;;694.30;640.77;;;4.10;99.90;;;;;;5108563;28;20484;-81
2021/12/20 08:38:31;;;;;;;693.13;641.10;;;4.00;99.90;;;;;;5107549;28;20450;-81
2021/12/20 08:40:58;;;;;;;704.47;645.07;;;3.90;99.90;;;;;;5109324;28;20478;-81
2021/12/20 08:43:26;;;;;;;698.67;639.93;;;3.80;99.90;;;;;;5108817;28;20513;-81
2021/12/20 08:45:55;;;;;;;693.63;634.40;;;3.80;99.90;;;;;;5108145;28;20476;-81
2021/12/20 08:48:22;;;;;;;697.40;636.60;;;3.80;99.90;;;;;;5109197;28;20963;-81
2021/12/20 08:50:49;;;;;;;700.97;637.87;;;3.80;99.90;;;;;;5109027;28;20470;-81
2021/12/20 08:53:15;;;;;;;704.10;641.90;;;3.80;99.90;;;;;;5109258;28;20449;-81
2021/12/20 08:55:42;;;;;;;712.00;645.70;;;3.80;99.90;;;;;;5108491;28;20453;-81
2021/12/20 08:58:09;;;;;;;721.50;654.63;;;3.70;99.90;;;;;;5108682;28;20450;-81
2021/12/20 09:00:37;;;;;;;715.83;649.43;;;3.90;99.90;;;;;;5108222;28;20470;-81
2021/12/20 09:03:06;;;;;;;709.17;643.27;;;4.20;99.90;;;;;;5108562;28;20452;-81
2021/12/20 09:05:34;;;;;;;713.50;648.87;;;4.20;99.90;;;;;;5107626;28;20457;-81
2021/12/20 09:08:03;;;;;;;723.00;659.10;;;4.30;99.90;;;;;;5109316;28;20460;-81
2021/12/20 09:10:32;;;;;;;723.03;660.47;;;4.40;99.90;;;;;;5108383;28;20504;-81
2021/12/20 09:13:00;;;;;;;720.03;658.27;;;4.40;99.90;;;;;;5108386;28;20518;-81
2021/12/20 09:15:27;;;;;;;714.53;654.73;;;4.40;99.90;;;;;;5107976;28;20940;-81
2021/12/20 09:17:55;;;;;;;720.03;661.07;;;4.40;99.90;;;;;;5108438;28;20488;-81
2021/12/20 09:20:29;;;;;;;725.13;662.67;;;4.40;99.90;;;;;;5108691;28;20479;-80
2021/12/20 09:23:03;;;;;;;719.87;657.40;;;4.50;99.90;;;;;;5109422;28;20486;-81
2021/12/20 09:25:31;;;;;;;720.60;659.37;;;4.50;99.90;;;;;;5108914;28;20455;-81
2021/12/20 09:28:00;;;;;;;723.60;663.20;;;4.60;99.90;;;;;;5108033;28;20446;-81
2021/12/20 09:30:30;;;;;;;717.67;658.87;;;4.70;99.90;;;;;;5108315;28;20501;-82
2021/12/20 09:32:57;;;;;;;713.73;658.20;;;4.80;99.90;;;;;;5107893;28;20506;-81
2021/12/20 09:35:25;;;;;;;709.73;654.73;;;4.80;99.90;;;;;;5106805;28;20445;-81
2021/12/20 09:37:52;;;;;;;713.17;657.80;;;4.90;99.90;;;;;;5107699;28;20537;-81
2021/12/20 09:40:30;;;;;;;710.90;655.97;;;4.80;99.90;;;;;;5107052;28;20542;-81
2021/12/20 09:42:58;;;;;;;717.40;658.27;;;4.90;99.90;;;;;;5106023;28;20491;-81
2021/12/20 09:45:25;;;;;;;697.33;644.57;;;5.00;99.90;;;;;;5106432;28;20449;-81
2021/12/20 09:47:52;;;;;;;699.37;646.87;;;5.00;99.90;;;;;;5104840;28;20803;-81
2021/12/20 09:50:19;;;;;;;699.17;647.83;;;5.00;99.90;;;;;;5107326;28;20500;-81
2021/12/20 09:52:48;;;;;;;683.83;635.70;;;5.00;99.90;;;;;;5107379;28;20452;-81
2021/12/20 09:55:15;;;;;;;645.23;602.90;;;5.20;99.90;;;;;;5106356;28;20459;-81
2021/12/20 09:57:43;;;;;;;555.53;526.00;;;5.30;99.90;;;;;;5103304;28;20461;-80
2021/12/20 10:00:13;;;;;;;469.97;446.57;;;5.40;99.90;;;;;;5104436;28;20466;-80
2021/12/20 10:02:39;;;;;;;389.73;372.33;;;5.40;99.90;;;;;;5104352;28;20446;-80
2021/12/20 10:05:07;;;;;;;277.40;265.43;;;5.60;99.90;;;;;;5097487;28;20824;-81
2021/12/20 10:07:34;;;;;;;363.80;347.53;;;5.60;99.90;;;;;;5080027;28;20520;-80
2021/12/20 10:10:03;;;;;;;340.57;326.13;;;5.70;99.90;;;;;;5079350;28;20844;-81
2021/12/20 10:12:30;;;;;;;239.70;229.03;;;5.70;99.90;;;;;;5080137;28;20443;-80
2021/12/20 10:15:03;;;;;;;156.73;148.43;;;5.70;99.90;;;;;;5081273;28;20465;-81
2021/12/20 10:17:35;;;;;;;225.43;215.13;;;5.80;99.90;;;;;;5095507;28;20495;-81
2021/12/20 10:20:18;;;;;;;182.90;173.77;;;5.80;99.90;;;;;;5096357;28;20997;-80
2021/12/20 10:22:45;;;;;;;266.30;255.70;;;5.80;99.90;;;;;;5096160;28;20473;-81
2021/12/20 10:25:25;;;;;;;182.67;174.13;;;5.80;99.90;;;;;;5094579;28;20442;-80
2021/12/20 10:27:52;;;;;;;190.47;181.83;;;6.00;99.90;;;;;;5095216;28;20997;-82
2021/12/20 10:30:28;;;;;;;221.50;211.30;;;5.90;99.90;;;;;;5095645;28;20469;-81
2021/12/20 10:32:56;;;;;;;183.23;174.43;;;6.00;99.90;;;;;;5076104;28;20937;-81
2021/12/20 10:35:31;;;;;;;65.77;61.03;;;6.10;99.90;;;;;;5093426;28;20442;-81
2021/12/20 10:38:01;;;;;;;125.03;118.77;;;6.00;99.90;;;;;;5093927;28;20508;-81
2021/12/20 10:40:30;;;;;;;155.70;148.07;;;6.00;99.90;;;;;;5074915;28;20722;-81
2021/12/20 10:42:57;;;;;;;140.67;133.47;;;6.10;99.90;;;;;;5074063;28;20501;-81
2021/12/20 10:45:27;;;;;;;109.13;103.17;;;6.20;99.90;;;;;;5075633;28;20446;-81
2021/12/20 10:47:54;;;;;;;38.53;34.07;;;6.10;99.90;;;;;;5076249;28;20938;-80
2021/12/20 10:50:34;;;;;;;36.23;31.00;;;6.10;99.90;;;;;;5074337;28;20477;-81
2021/12/20 10:53:28;;;;;;;44.67;40.27;;;6.20;99.90;;;;;;5097022;28;20844;-80
2021/12/20 10:55:58;;;;;;;58.73;53.23;;;6.20;99.90;;;;;;5096296;28;20456;-81
2021/12/20 10:58:32;;;;;;;33.10;20.37;;;6.20;99.90;;;;;;5088526;28;20586;-81
2021/12/20 11:01:22;;;;;;;27.20;11.67;;;6.30;99.90;;;;;;5090995;28;20473;-81
2021/12/20 11:04:12;;;;;;;42.53;13.80;;;6.40;99.90;;;;;;5101080;28;20445;-81
2021/12/20 11:10:00;;;;;;;28.90;14.27;;;6.40;99.90;;;;;;5099244;28;20208;-82
2021/12/20 11:12:39;;;;;;;28.77;12.97;;;6.50;99.90;;;;;;5105259;28;20442;-81
2021/12/20 11:15:08;;;;;;;23.97;9.47;;;6.50;99.90;;;;;;5098515;28;20481;-81
2021/12/20 11:17:40;;;;;;;24.23;10.83;;;6.50;99.90;;;;;;5098545;28;20479;-81
2021/12/20 11:20:11;;;;;;;24.13;14.43;;;6.60;99.90;;;;;;5098433;28;20473;-81
2021/12/20 11:22:45;;;;;;;30.03;6.30;;;6.60;99.90;;;;;;5098945;28;20532;-80
2021/12/20 11:25:14;;;;;;;16.70;4.87;;;6.60;96.70;;;;;;5098810;28;20484;-81
2021/12/20 11:27:51;;;;;;;25.23;5.50;;;6.70;94.00;;;;;;5098193;28;20449;-79
2021/12/20 11:30:23;;;;;;;20.33;8.07;;;6.80;94.70;;;;;;5100852;28;20476;-80
2021/12/20 11:32:50;;;;;;;19.27;4.90;;;6.80;95.90;;;;;;5099383;28;20458;-80
2021/12/20 11:35:19;;;;;;;19.37;5.30;;;7.00;95.70;;;;;;5097903;28;20460;-81
2021/12/20 11:37:46;;;;;;;23.43;5.90;;;7.60;90.80;;;;;;5097344;28;20473;-81
2021/12/20 11:40:18;;;;;;;24.33;5.17;;;8.30;88.30;;;;;;5097349;28;20476;-82
2021/12/20 11:42:48;;;;;;;16.70;4.73;;;8.90;90.70;;;;;;5097745;28;20507;-81
2021/12/20 11:45:17;;;;;;;18.67;5.87;;;9.50;79.70;;;;;;5097592;28;20453;-81
2021/12/20 11:47:50;;;;;;;20.87;5.13;;;9.60;79.90;;;;;;5098216;28;20455;-82
2021/12/20 11:50:19;;;;;;;26.83;5.10;;;9.20;77.10;;;;;;5098859;28;20479;-81
2021/12/20 11:52:48;;;;;;;17.80;4.83;;;9.20;78.50;;;;;;5097758;28;21008;-81
2021/12/20 11:55:18;;;;;;;19.20;6.07;;;9.40;74.20;;;;;;5097399;28;20549;-81
2021/12/20 11:57:47;;;;;;;14.43;4.47;;;9.50;72.20;;;;;;5096734;28;20473;-81
2021/12/20 12:00:33;;;;;;;20.13;5.77;;;9.60;69.80;;;;;;5097510;28;20508;-82
2021/12/20 12:03:04;;;;;;;35.70;6.43;;;9.80;70.80;;;;;;5097476;28;20452;-81
2021/12/20 12:05:43;;;;;;;23.73;4.77;;;10.50;69.50;;;;;;5097635;28;20548;-81
2021/12/20 12:08:36;;;;;;;20.33;4.60;;;10.60;61.50;;;;;;5098388;28;20445;-81
2021/12/20 12:11:28;;;;;;;23.20;5.67;;;11.00;65.40;;;;;;5098275;28;20469;-81
2021/12/20 12:14:23;;;;;;;17.13;6.17;;;11.10;58.20;;;;;;5092473;28;20832;-84
2021/12/20 12:17:00;;;;;;;18.23;4.73;;;11.10;53.60;;;;;;5096834;28;20448;-82
2021/12/20 12:19:49;;;;;;;16.73;4.47;;;11.30;52.90;;;;;;5097296;28;20935;-82
2021/12/20 12:22:40;;;;;;;21.50;4.77;;;11.30;51.80;;;;;;5097417;28;20513;-81
2021/12/20 12:25:15;;;;;;;19.70;5.17;;;11.50;48.40;;;;;;5099844;28;20948;-80
2021/12/20 12:28:00;;;;;;;10.20;4.00;;;11.60;50.10;;;;;;5100163;28;20457;-82
2021/12/20 12:30:41;;;;;;;20.57;3.90;;;11.50;45.30;;;;;;5101839;28;20476;-80
2021/12/20 12:33:39;;;;;;;11.60;3.40;;;11.70;45.50;;;;;;5103460;28;20493;-83
2021/12/20 12:36:26;;;;;;;14.75;3.90;;;11.40;43.10;;;;;;5098574;28;20454;-82
2021/12/20 12:39:25;;;;;;;11.17;3.50;;;11.40;41.80;;;;;;5105302;28;20642;-82
2021/12/20 12:42:46;;;;;;;21.30;4.27;;;12.00;41.80;;;;;;5106828;28;20471;-81
2021/12/20 12:46:02;;;;;;;11.03;3.30;;;11.80;36.70;;;;;;5102617;28;20449;-83
2021/12/20 12:49:01;;;;;;;18.83;4.07;;;11.70;37.00;;;;;;5105901;28;20455;-82
2021/12/20 12:52:09;;;;;;;9.80;2.90;;;11.80;36.70;;;;;;5098140;28;20895;-83
2021/12/20 12:55:02;;;;;;;8.90;2.47;;;12.10;29.30;;;;;;5106572;28;20467;-82
2021/12/20 12:58:24;;;;;;;12.93;2.70;;;12.50;28.80;;;;;;5107579;28;20507;-83
2021/12/20 13:04:20;;;;;;;11.03;2.53;;;13.10;26.10;;;;;;5107418;28;20451;-83
2021/12/20 13:07:05;;;;;;;10.13;2.83;;;13.30;24.40;;;;;;5108751;28;20532;-82
2021/12/20 13:10:30;;;;;;;12.67;3.13;;;13.20;21.50;;;;;;5107476;28;20473;-82